Time,TemperatureF,DewpointF,PressureIn,WindDirection,WindDirectionDegrees,WindSpeedMPH,WindSpeedGustMPH,Humidity,HourlyPrecipIn,Conditions,Clouds,dailyrainin,SoftwareType,DateUTC
2013-04-24 00:07:00,41.5,41.0,29.83,WSW,247,0.0,-999.0,98,-99.99,,,0.00,Acu-Link.com,2013-04-24 04:07:00,
2013-04-24 00:22:00,41.2,40.7,29.82,West,270,0.0,-999.0,98,-99.99,,,0.00,Acu-Link.com,2013-04-24 04:22:00,
2013-04-24 00:37:00,40.6,40.1,29.82,North,0,0.0,-999.0,98,-99.99,,,0.00,Acu-Link.com,2013-04-24 04:37:00,
2013-04-24 00:52:00,40.1,39.6,29.81,SE,135,0.0,-999.0,98,-99.99,,,0.00,Acu-Link.com,2013-04-24 04:52:00,
2013-04-24 01:07:00,39.6,39.1,29.81,NNE,22,0.0,-999.0,98,-99.99,,,0.00,Acu-Link.com,2013-04-24 05:07:00,
2013-04-24 01:23:00,39.2,38.7,29.80,WSW,247,0.0,-999.0,98,-99.99,,,0.00,Acu-Link.com,2013-04-24 05:23:00,
2013-04-24 01:38:00,39.0,38.5,29.80,NE,45,0.0,-999.0,98,-99.99,,,0.00,Acu-Link.com,2013-04-24 05:38:00,
2013-04-24 01:53:00,38.5,38.0,29.79,West,270,0.0,-999.0,98,-99.99,,,0.00,Acu-Link.com,2013-04-24 05:53:00,
2013-04-24 02:08:00,37.9,37.4,29.79,West,270,0.0,-999.0,98,-99.99,,,0.00,Acu-Link.com,2013-04-24 06:08:00,
2013-04-24 02:23:00,37.6,37.1,29.79,North,0,0.0,-999.0,98,-99.99,,,0.00,Acu-Link.com,2013-04-24 06:23:00,
2013-04-24 02:38:00,37.2,36.7,29.79,WNW,292,0.0,-999.0,98,-99.99,,,0.00,Acu-Link.com,2013-04-24 06:38:00,
2013-04-24 02:53:00,36.7,36.2,29.78,WNW,292,0.0,-999.0,98,-99.99,,,0.00,Acu-Link.com,2013-04-24 06:53:00,
2013-04-24 03:08:00,36.5,36.0,29.77,North,0,0.0,-999.0,98,-99.99,,,0.00,Acu-Link.com,2013-04-24 07:08:00,
2013-04-24 03:23:00,36.0,35.5,29.77,West,270,0.0,-999.0,98,-99.99,,,0.00,Acu-Link.com,2013-04-24 07:23:00,
2013-04-24 03:39:00,36.5,36.0,29.77,North,0,0.0,-999.0,98,-99.99,,,0.00,Acu-Link.com,2013-04-24 07:39:00,
2013-04-24 03:54:00,36.3,35.8,29.77,NW,315,0.0,-999.0,98,-99.99,,,0.00,Acu-Link.com,2013-04-24 07:54:00,
2013-04-24 04:09:00,36.3,35.8,29.77,SW,225,0.0,-999.0,98,-99.99,,,0.00,Acu-Link.com,2013-04-24 08:09:00,
2013-04-24 04:24:00,36.0,35.5,29.77,NNE,22,0.0,-999.0,98,-99.99,,,0.00,Acu-Link.com,2013-04-24 08:24:00,
2013-04-24 04:39:00,35.6,35.1,29.77,West,270,0.0,-999.0,98,-99.99,,,0.00,Acu-Link.com,2013-04-24 08:39:00,
2013-04-24 04:54:00,34.9,34.4,29.77,WNW,292,0.0,-999.0,98,-99.99,,,0.00,Acu-Link.com,2013-04-24 08:54:00,
2013-04-24 05:09:00,34.7,34.2,29.77,NNW,337,0.0,-999.0,98,-99.99,,,0.00,Acu-Link.com,2013-04-24 09:09:00,
2013-04-24 05:24:00,34.2,33.7,29.77,WNW,292,0.0,-999.0,98,-99.99,,,0.00,Acu-Link.com,2013-04-24 09:24:00,
2013-04-24 05:39:00,34.2,33.7,29.77,WSW,247,0.0,-999.0,98,-99.99,,,0.00,Acu-Link.com,2013-04-24 09:39:00,
2013-04-24 05:55:00,34.7,34.2,29.77,West,270,0.0,-999.0,98,-99.99,,,0.00,Acu-Link.com,2013-04-24 09:55:00,
2013-04-24 06:10:00,34.3,33.8,29.78,WNW,292,0.0,-999.0,98,-99.99,,,0.00,Acu-Link.com,2013-04-24 10:10:00,
2013-04-24 06:25:00,34.7,34.2,29.77,NE,45,0.0,-999.0,98,-99.99,,,0.00,Acu-Link.com,2013-04-24 10:25:00,
2013-04-24 06:40:00,35.2,34.7,29.78,WNW,292,0.0,-999.0,98,-99.99,,,0.00,Acu-Link.com,2013-04-24 10:40:00,
2013-04-24 06:55:00,35.4,34.9,29.78,West,270,0.0,-999.0,98,-99.99,,,0.00,Acu-Link.com,2013-04-24 10:55:00,
2013-04-24 07:10:00,36.7,36.2,29.78,SSE,157,0.0,-999.0,98,-99.99,,,0.00,Acu-Link.com,2013-04-24 11:10:00,
2013-04-24 07:25:00,39.0,38.5,29.79,SSW,202,0.0,-999.0,98,-99.99,,,0.00,Acu-Link.com,2013-04-24 11:25:00,
2013-04-24 07:40:00,40.5,40.0,29.78,East,90,0.0,-999.0,98,-99.99,,,0.00,Acu-Link.com,2013-04-24 11:40:00,
2013-04-24 07:55:00,42.4,41.9,29.78,WSW,247,0.0,-999.0,98,-99.99,,,0.00,Acu-Link.com,2013-04-24 11:55:00,
2013-04-24 08:10:00,44.8,44.3,29.77,WSW,247,0.0,-999.0,98,-99.99,,,0.00,Acu-Link.com,2013-04-24 12:10:00,
2013-04-24 08:26:00,46.9,46.4,29.77,South,180,0.0,-999.0,98,-99.99,,,0.00,Acu-Link.com,2013-04-24 12:26:00,
2013-04-24 08:41:00,50.2,49.7,29.76,NE,45,1.7,-999.0,98,-99.99,,,0.00,Acu-Link.com,2013-04-24 12:41:00,
2013-04-24 08:56:00,53.1,52.5,29.75,SW,225,2.7,-999.0,98,-99.99,,,0.00,Acu-Link.com,2013-04-24 12:56:00,
2013-04-24 09:11:00,54.5,53.9,29.75,SSE,157,1.7,-999.0,98,-99.99,,,0.00,Acu-Link.com,2013-04-24 13:11:00,
2013-04-24 09:26:00,56.3,55.7,29.74,SW,225,2.2,-999.0,98,-99.99,,,0.00,Acu-Link.com,2013-04-24 13:26:00,
2013-04-24 09:41:00,56.7,56.1,29.74,ESE,112,2.2,-999.0,98,-99.99,,,0.00,Acu-Link.com,2013-04-24 13:41:00,
2013-04-24 09:56:00,58.8,58.2,29.74,East,90,3.2,-999.0,98,-99.99,,,0.00,Acu-Link.com,2013-04-24 13:56:00,
2013-04-24 10:13:00,58.3,57.7,29.73,ESE,112,2.2,-999.0,98,-99.99,,,0.00,Acu-Link.com,2013-04-24 14:13:00,
2013-04-24 10:34:00,61.0,60.4,29.73,ESE,112,4.2,-999.0,98,-99.99,,,0.00,Acu-Link.com,2013-04-24 14:34:00,
2013-04-24 10:49:00,61.2,60.6,29.73,ENE,67,2.2,-999.0,98,-99.99,,,0.00,Acu-Link.com,2013-04-24 14:49:00,
2013-04-24 11:04:00,63.9,63.3,29.73,WNW,292,3.2,-999.0,98,-99.99,,,0.00,Acu-Link.com,2013-04-24 15:04:00,
2013-04-24 11:19:00,64.8,64.2,29.72,NW,315,2.7,-999.0,98,-99.99,,,0.00,Acu-Link.com,2013-04-24 15:19:00,
2013-04-24 11:35:00,65.3,64.7,29.71,ENE,67,4.2,-999.0,98,-99.99,,,0.00,Acu-Link.com,2013-04-24 15:35:00,
2013-04-24 11:57:00,65.1,64.5,29.69,SW,225,2.2,-999.0,98,-99.99,,,0.00,Acu-Link.com,2013-04-24 15:57:00,
2013-04-24 12:20:00,67.3,66.1,29.68,South,180,4.7,-999.0,96,-99.99,,,0.00,Acu-Link.com,2013-04-24 16:20:00,
2013-04-24 13:15:00,70.5,66.8,29.64,South,180,5.3,-999.0,88,-99.99,,,0.00,Acu-Link.com,2013-04-24 17:15:00,
2013-04-24 15:00:00,74.3,66.2,29.57,SW,225,4.2,-999.0,76,-99.99,,,0.00,Acu-Link.com,2013-04-24 19:00:00,
2013-04-24 15:39:00,74.7,67.0,29.56,South,180,2.7,-999.0,77,-99.99,,,0.00,Acu-Link.com,2013-04-24 19:39:00,
2013-04-24 16:07:00,74.5,66.4,29.54,ESE,112,4.7,-999.0,76,-99.99,,,0.00,Acu-Link.com,2013-04-24 20:07:00,
2013-04-24 18:11:00,72.0,67.9,29.50,SSE,157,1.7,-999.0,87,-99.99,,,0.00,Acu-Link.com,2013-04-24 22:11:00,
2013-04-24 18:27:00,71.8,68.4,29.50,SE,135,5.3,-999.0,89,-99.99,,,0.00,Acu-Link.com,2013-04-24 22:27:00,
2013-04-24 18:45:00,69.1,68.5,29.50,SSW,202,5.8,-999.0,98,-99.99,,,0.00,Acu-Link.com,2013-04-24 22:45:00,
2013-04-24 19:16:00,66.2,65.6,29.51,SSW,202,5.3,-999.0,98,-99.99,,,0.00,Acu-Link.com,2013-04-24 23:16:00,
2013-04-24 19:48:00,66.0,65.4,29.54,South,180,1.7,-999.0,98,-99.99,,,0.00,Acu-Link.com,2013-04-24 23:48:00,
2013-04-24 20:09:00,63.9,63.3,29.54,WNW,292,1.7,-999.0,98,-99.99,,,0.00,Acu-Link.com,2013-04-25 00:09:00,
2013-04-24 20:24:00,63.5,62.9,29.55,SSW,202,2.7,-999.0,98,-99.99,,,0.00,Acu-Link.com,2013-04-25 00:24:00,
2013-04-24 20:40:00,63.1,62.5,29.56,South,180,5.3,-999.0,98,-99.99,,,0.00,Acu-Link.com,2013-04-25 00:40:00,
2013-04-24 20:55:00,62.6,62.0,29.55,West,270,3.2,-999.0,98,-99.99,,,0.00,Acu-Link.com,2013-04-25 00:55:00,
2013-04-24 21:10:00,62.1,61.5,29.56,SW,225,3.2,-999.0,98,-99.99,,,0.00,Acu-Link.com,2013-04-25 01:10:00,
2013-04-24 21:25:00,61.5,60.9,29.56,South,180,2.2,-999.0,98,-99.99,,,0.00,Acu-Link.com,2013-04-25 01:25:00,
2013-04-24 21:40:00,61.2,60.6,29.56,NW,315,3.2,-999.0,98,-99.99,,,0.00,Acu-Link.com,2013-04-25 01:40:00,
2013-04-24 21:55:00,60.6,60.0,29.56,South,180,2.2,-999.0,98,-99.99,,,0.00,Acu-Link.com,2013-04-25 01:55:00,
2013-04-24 22:10:00,59.9,59.3,29.57,SSW,202,3.2,-999.0,98,-99.99,,,0.00,Acu-Link.com,2013-04-25 02:10:00,
2013-04-24 22:25:00,59.7,59.1,29.57,SE,135,2.2,-999.0,98,-99.99,,,0.00,Acu-Link.com,2013-04-25 02:25:00,
2013-04-24 22:40:00,58.8,58.2,29.57,SW,225,0.0,-999.0,98,-99.99,,,0.00,Acu-Link.com,2013-04-25 02:40:00,
2013-04-24 22:55:00,59.0,58.4,29.57,SW,225,0.0,-999.0,98,-99.99,,,0.00,Acu-Link.com,2013-04-25 02:55:00,
2013-04-24 23:11:00,58.8,58.2,29.57,SSE,157,1.1,-999.0,98,-99.99,,,0.00,Acu-Link.com,2013-04-25 03:11:00,
2013-04-24 23:26:00,59.0,58.4,29.56,SW,225,2.2,-999.0,98,-99.99,,,0.00,Acu-Link.com,2013-04-25 03:26:00,
2013-04-24 23:41:00,59.0,58.4,29.57,SW,225,2.2,-999.0,98,-99.99,,,0.00,Acu-Link.com,2013-04-25 03:41:00,
2013-04-24 23:56:00,59.0,58.4,29.56,SW,225,3.2,-999.0,98,-99.99,,,0.00,Acu-Link.com,2013-04-25 03:56:00,